KVDI/VDI METAR and TAF weather

Enter ICAO airport designator
Station Type Date Time Source
KVDI METAR 2021/05/12 05:19 UTC NOAA

KVDI 120519Z AUTO 00000KT 10SM -RA SCT090 OVC110 19/19 A3007 RMK AO2 LTG DSNT E


Station Type Date Time Source
KVDI Decoded METAR 2021/05/12 05:19 UTC NOAA

Vidalia, Vidalia Municipal Airport, GA, United States (KVDI) 32-11-33N 082-22-19W
May 12, 2021 - 01:19 AM EDT / 2021.05.12 0519 UTC
Wind: Calm:0
Visibility: 10 mile(s):0
Sky conditions: overcast
Weather: light rain; Lightning observed
Temperature: 66 F (19 C)
Dew Point: 66 F (19 C)
Relative Humidity: 100%
Pressure (altimeter): 30.07 in. Hg (1018 hPa)
ob: KVDI 120519Z AUTO 00000KT 10SM -RA SCT090 OVC110 19/19 A3007 RMK AO2 LTG DSNT E
cycle: 5

Station Type Date Time Source
KVDI TAF UTC NOAA

Error!

Example: see airport list